METAR
METAR MDST 281000Z 12006KT 9999 BKN016 23/23 Q1015=
METAR MDPC 281000Z 11010KT 9999 FEW018 25/24 Q1015 NOSIG=
METAR MDSD 281000Z 03004KT 9999 SCT016 SCT070 23/22 Q1015=